Impacts TAF Board INFO
FOR SITUATIONAL AWARENESS. NOT TO BE USED FOR FLIGHT PLANNING PURPOSES.
IDs:

KMIA - Miami Intl, FL, US

Issued at 1721 UTC 17 Jul 2018
Updated at 1936 UTC 17 Jul 2018
Potential Impact None Slight Moderate High
Time<<18/20Z 18/21Z 18/22Z 18/23Z 19/00Z 19/01Z 19/02Z 19/03Z 19/04Z 19/05Z 19/06Z 19/07Z 19/08Z
Type PRVL PRVL PRVL PRVL
VIS >6 >6 >6 >6
CIG -- -- -- --
Cover SCT SCT SCT SCT
FltCat VFR VFR VFR VFR
WX -- -- -- --
WDir 190 190 190 190
WSpd 8 8 8 8
WGst -- -- -- --

Raw TAF
KMIA 171721Z 1718/1824 15008KT P6SM VCTS SCT030CB BKN060
  FM172300 VRB05KT P6SM VCSH FEW030 SCT080 BKN120
  FM180100 22003KT P6SM FEW030 SCT250
  FM181800 19008KT P6SM FEW030 SCT060


METAR Board
Radar Display
Forecast Discussion

FOR SITUATIONAL AWARENESS. NOT TO BE USED FOR FLIGHT PLANNING PURPOSES.